sensor_id;sensor_type;location;lat;lon;timestamp;P1;durP1;ratioP1;P2;durP2;ratioP2
42364;SDS011;28498;54.400;18.566;2023-03-14T00:00:09;8.95;;;5.82;;
42364;SDS011;28498;54.400;18.566;2023-03-14T00:02:39;10.60;;;5.97;;
42364;SDS011;28498;54.400;18.566;2023-03-14T00:05:06;11.43;;;6.10;;
42364;SDS011;28498;54.400;18.566;2023-03-14T00:07:37;11.73;;;6.18;;
42364;SDS011;28498;54.400;18.566;2023-03-14T00:10:10;10.27;;;5.82;;
42364;SDS011;28498;54.400;18.566;2023-03-14T00:12:40;8.50;;;6.28;;
42364;SDS011;28498;54.400;18.566;2023-03-14T00:15:08;11.48;;;6.38;;
42364;SDS011;28498;54.400;18.566;2023-03-14T00:17:36;10.52;;;6.28;;
42364;SDS011;28498;54.400;18.566;2023-03-14T00:20:04;12.60;;;6.55;;
42364;SDS011;28498;54.400;18.566;2023-03-14T00:22:35;10.63;;;6.30;;
42364;SDS011;28498;54.400;18.566;2023-03-14T00:25:03;9.52;;;5.88;;
42364;SDS011;28498;54.400;18.566;2023-03-14T00:27:31;12.45;;;6.13;;
42364;SDS011;28498;54.400;18.566;2023-03-14T00:29:58;8.95;;;5.68;;
42364;SDS011;28498;54.400;18.566;2023-03-14T00:32:25;11.35;;;7.10;;
42364;SDS011;28498;54.400;18.566;2023-03-14T00:34:52;9.02;;;6.85;;
42364;SDS011;28498;54.400;18.566;2023-03-14T00:37:19;10.27;;;6.05;;
42364;SDS011;28498;54.400;18.566;2023-03-14T00:39:46;9.98;;;5.95;;
42364;SDS011;28498;54.400;18.566;2023-03-14T00:42:14;7.93;;;5.85;;
42364;SDS011;28498;54.400;18.566;2023-03-14T00:44:40;9.38;;;5.82;;
42364;SDS011;28498;54.400;18.566;2023-03-14T00:47:07;10.02;;;6.15;;
42364;SDS011;28498;54.400;18.566;2023-03-14T00:49:34;10.07;;;6.00;;
42364;SDS011;28498;54.400;18.566;2023-03-14T00:52:01;10.95;;;6.07;;
42364;SDS011;28498;54.400;18.566;2023-03-14T00:54:28;9.93;;;6.47;;
42364;SDS011;28498;54.400;18.566;2023-03-14T00:56:56;10.10;;;6.07;;
42364;SDS011;28498;54.400;18.566;2023-03-14T00:59:23;11.80;;;6.00;;
42364;SDS011;28498;54.400;18.566;2023-03-14T01:01:50;10.32;;;6.32;;
42364;SDS011;28498;54.400;18.566;2023-03-14T01:04:17;10.25;;;6.35;;
42364;SDS011;28498;54.400;18.566;2023-03-14T01:06:44;11.77;;;6.43;;
42364;SDS011;28498;54.400;18.566;2023-03-14T01:09:11;11.02;;;6.72;;
42364;SDS011;28498;54.400;18.566;2023-03-14T01:11:38;9.50;;;6.07;;
42364;SDS011;28498;54.400;18.566;2023-03-14T01:14:05;8.32;;;5.22;;
42364;SDS011;28498;54.400;18.566;2023-03-14T01:16:33;8.77;;;5.80;;
42364;SDS011;28498;54.400;18.566;2023-03-14T01:19:01;12.98;;;5.88;;
42364;SDS011;28498;54.400;18.566;2023-03-14T01:21:30;8.70;;;5.63;;
42364;SDS011;28498;54.400;18.566;2023-03-14T01:23:59;7.38;;;5.40;;
42364;SDS011;28498;54.400;18.566;2023-03-14T01:26:29;10.02;;;5.80;;
42364;SDS011;28498;54.400;18.566;2023-03-14T01:28:57;9.93;;;5.78;;
42364;SDS011;28498;54.400;18.566;2023-03-14T01:31:24;8.25;;;5.25;;
42364;SDS011;28498;54.400;18.566;2023-03-14T01:33:52;10.13;;;5.38;;
42364;SDS011;28498;54.400;18.566;2023-03-14T01:36:20;9.27;;;5.43;;
42364;SDS011;28498;54.400;18.566;2023-03-14T01:38:47;8.00;;;5.35;;
42364;SDS011;28498;54.400;18.566;2023-03-14T01:41:19;9.15;;;5.70;;
42364;SDS011;28498;54.400;18.566;2023-03-14T01:43:48;9.43;;;5.35;;
42364;SDS011;28498;54.400;18.566;2023-03-14T01:46:23;11.40;;;5.75;;
42364;SDS011;28498;54.400;18.566;2023-03-14T01:49:07;8.98;;;4.95;;
42364;SDS011;28498;54.400;18.566;2023-03-14T01:51:41;8.75;;;5.60;;
42364;SDS011;28498;54.400;18.566;2023-03-14T01:56:57;7.95;;;5.50;;
42364;SDS011;28498;54.400;18.566;2023-03-14T01:59:34;10.10;;;5.40;;
42364;SDS011;28498;54.400;18.566;2023-03-14T02:02:04;12.35;;;5.55;;
42364;SDS011;28498;54.400;18.566;2023-03-14T02:04:36;8.52;;;5.45;;
42364;SDS011;28498;54.400;18.566;2023-03-14T02:09:38;10.43;;;5.72;;
42364;SDS011;28498;54.400;18.566;2023-03-14T02:12:07;11.45;;;5.60;;
42364;SDS011;28498;54.400;18.566;2023-03-14T02:14:36;9.65;;;5.68;;
42364;SDS011;28498;54.400;18.566;2023-03-14T02:17:04;8.20;;;5.10;;
42364;SDS011;28498;54.400;18.566;2023-03-14T02:19:44;7.10;;;4.97;;
42364;SDS011;28498;54.400;18.566;2023-03-14T02:22:19;9.30;;;5.32;;
42364;SDS011;28498;54.400;18.566;2023-03-14T02:27:26;9.88;;;4.95;;
42364;SDS011;28498;54.400;18.566;2023-03-14T02:30:01;10.27;;;5.57;;
42364;SDS011;28498;54.400;18.566;2023-03-14T02:32:41;8.13;;;5.07;;
42364;SDS011;28498;54.400;18.566;2023-03-14T02:35:12;9.40;;;5.28;;
42364;SDS011;28498;54.400;18.566;2023-03-14T02:37:47;8.23;;;5.35;;
42364;SDS011;28498;54.400;18.566;2023-03-14T02:40:26;8.88;;;5.53;;
42364;SDS011;28498;54.400;18.566;2023-03-14T02:42:53;9.82;;;4.65;;
42364;SDS011;28498;54.400;18.566;2023-03-14T02:47:54;10.43;;;5.30;;
42364;SDS011;28498;54.400;18.566;2023-03-14T02:50:26;11.07;;;5.50;;
42364;SDS011;28498;54.400;18.566;2023-03-14T02:52:56;10.57;;;4.78;;
42364;SDS011;28498;54.400;18.566;2023-03-14T02:55:23;9.63;;;5.20;;
42364;SDS011;28498;54.400;18.566;2023-03-14T02:57:53;9.13;;;5.10;;
42364;SDS011;28498;54.400;18.566;2023-03-14T03:00:20;8.63;;;5.82;;
42364;SDS011;28498;54.400;18.566;2023-03-14T03:02:47;7.63;;;5.35;;
42364;SDS011;28498;54.400;18.566;2023-03-14T03:05:14;8.30;;;5.20;;
42364;SDS011;28498;54.400;18.566;2023-03-14T03:07:41;7.55;;;4.32;;
42364;SDS011;28498;54.400;18.566;2023-03-14T03:10:08;9.10;;;5.13;;
42364;SDS011;28498;54.400;18.566;2023-03-14T03:12:36;7.78;;;4.93;;
42364;SDS011;28498;54.400;18.566;2023-03-14T03:15:03;9.07;;;4.80;;
42364;SDS011;28498;54.400;18.566;2023-03-14T03:17:30;7.05;;;4.20;;
42364;SDS011;28498;54.400;18.566;2023-03-14T03:19:57;7.60;;;4.70;;
42364;SDS011;28498;54.400;18.566;2023-03-14T03:22:24;9.68;;;4.80;;
42364;SDS011;28498;54.400;18.566;2023-03-14T03:24:51;8.02;;;4.47;;
42364;SDS011;28498;54.400;18.566;2023-03-14T03:27:17;8.70;;;4.55;;
42364;SDS011;28498;54.400;18.566;2023-03-14T03:29:44;8.60;;;5.18;;
42364;SDS011;28498;54.400;18.566;2023-03-14T03:32:11;7.88;;;5.20;;
42364;SDS011;28498;54.400;18.566;2023-03-14T03:34:38;7.75;;;4.25;;
42364;SDS011;28498;54.400;18.566;2023-03-14T03:37:05;8.93;;;5.35;;
42364;SDS011;28498;54.400;18.566;2023-03-14T03:39:32;8.63;;;5.25;;
42364;SDS011;28498;54.400;18.566;2023-03-14T03:41:59;8.88;;;3.97;;
42364;SDS011;28498;54.400;18.566;2023-03-14T03:44:26;9.38;;;4.65;;
42364;SDS011;28498;54.400;18.566;2023-03-14T03:46:53;7.68;;;4.75;;
42364;SDS011;28498;54.400;18.566;2023-03-14T03:49:20;7.40;;;4.28;;
42364;SDS011;28498;54.400;18.566;2023-03-14T03:51:47;9.50;;;5.30;;
42364;SDS011;28498;54.400;18.566;2023-03-14T03:54:14;8.80;;;4.35;;
42364;SDS011;28498;54.400;18.566;2023-03-14T03:56:41;8.75;;;4.07;;
42364;SDS011;28498;54.400;18.566;2023-03-14T03:59:08;7.80;;;4.03;;
42364;SDS011;28498;54.400;18.566;2023-03-14T04:01:35;7.65;;;4.70;;
42364;SDS011;28498;54.400;18.566;2023-03-14T04:04:02;6.38;;;4.35;;
42364;SDS011;28498;54.400;18.566;2023-03-14T04:06:29;8.70;;;4.20;;
42364;SDS011;28498;54.400;18.566;2023-03-14T04:08:56;8.15;;;4.68;;
42364;SDS011;28498;54.400;18.566;2023-03-14T04:11:24;9.38;;;4.32;;
42364;SDS011;28498;54.400;18.566;2023-03-14T04:13:51;6.70;;;3.90;;
42364;SDS011;28498;54.400;18.566;2023-03-14T04:16:20;5.35;;;3.50;;
42364;SDS011;28498;54.400;18.566;2023-03-14T04:18:48;6.85;;;4.10;;
42364;SDS011;28498;54.400;18.566;2023-03-14T04:21:15;7.25;;;4.35;;
42364;SDS011;28498;54.400;18.566;2023-03-14T04:23:42;6.45;;;4.10;;
42364;SDS011;28498;54.400;18.566;2023-03-14T04:26:09;8.38;;;4.05;;
42364;SDS011;28498;54.400;18.566;2023-03-14T04:28:36;7.03;;;4.18;;
42364;SDS011;28498;54.400;18.566;2023-03-14T04:31:08;4.72;;;3.38;;
42364;SDS011;28498;54.400;18.566;2023-03-14T04:33:37;6.75;;;3.15;;
42364;SDS011;28498;54.400;18.566;2023-03-14T04:36:06;6.72;;;3.08;;
42364;SDS011;28498;54.400;18.566;2023-03-14T04:38:33;5.97;;;3.33;;
42364;SDS011;28498;54.400;18.566;2023-03-14T04:41:01;5.43;;;3.30;;
42364;SDS011;28498;54.400;18.566;2023-03-14T04:43:28;4.88;;;2.88;;
42364;SDS011;28498;54.400;18.566;2023-03-14T04:45:55;6.38;;;3.38;;
42364;SDS011;28498;54.400;18.566;2023-03-14T04:48:24;6.45;;;3.15;;
42364;SDS011;28498;54.400;18.566;2023-03-14T04:50:52;4.85;;;3.10;;
42364;SDS011;28498;54.400;18.566;2023-03-14T04:53:20;5.70;;;2.95;;
42364;SDS011;28498;54.400;18.566;2023-03-14T04:55:50;5.88;;;2.90;;
42364;SDS011;28498;54.400;18.566;2023-03-14T04:58:19;6.72;;;3.42;;
42364;SDS011;28498;54.400;18.566;2023-03-14T05:00:47;7.15;;;3.10;;
42364;SDS011;28498;54.400;18.566;2023-03-14T05:03:15;5.03;;;2.83;;
42364;SDS011;28498;54.400;18.566;2023-03-14T05:05:43;6.45;;;3.08;;
42364;SDS011;28498;54.400;18.566;2023-03-14T05:08:10;6.28;;;3.53;;
42364;SDS011;28498;54.400;18.566;2023-03-14T05:10:37;6.32;;;3.13;;
42364;SDS011;28498;54.400;18.566;2023-03-14T05:13:04;6.60;;;3.30;;
42364;SDS011;28498;54.400;18.566;2023-03-14T05:15:31;6.43;;;3.00;;
42364;SDS011;28498;54.400;18.566;2023-03-14T05:17:59;5.25;;;3.65;;
42364;SDS011;28498;54.400;18.566;2023-03-14T05:20:26;10.45;;;3.33;;
42364;SDS011;28498;54.400;18.566;2023-03-14T05:22:53;31.70;;;4.70;;
42364;SDS011;28498;54.400;18.566;2023-03-14T05:25:20;5.65;;;3.00;;
42364;SDS011;28498;54.400;18.566;2023-03-14T05:27:47;4.65;;;2.83;;
42364;SDS011;28498;54.400;18.566;2023-03-14T05:30:14;6.72;;;3.28;;
42364;SDS011;28498;54.400;18.566;2023-03-14T05:32:41;5.20;;;2.85;;
42364;SDS011;28498;54.400;18.566;2023-03-14T05:35:08;5.20;;;3.00;;
42364;SDS011;28498;54.400;18.566;2023-03-14T05:37:35;5.68;;;3.10;;
42364;SDS011;28498;54.400;18.566;2023-03-14T05:40:02;5.80;;;2.88;;
42364;SDS011;28498;54.400;18.566;2023-03-14T05:42:32;9.30;;;3.92;;
42364;SDS011;28498;54.400;18.566;2023-03-14T05:44:59;6.68;;;3.05;;
42364;SDS011;28498;54.400;18.566;2023-03-14T05:47:26;8.20;;;3.50;;
42364;SDS011;28498;54.400;18.566;2023-03-14T05:49:54;6.47;;;2.88;;
42364;SDS011;28498;54.400;18.566;2023-03-14T05:52:21;4.55;;;2.42;;
42364;SDS011;28498;54.400;18.566;2023-03-14T05:54:48;6.55;;;3.28;;
42364;SDS011;28498;54.400;18.566;2023-03-14T05:57:15;6.75;;;2.67;;
42364;SDS011;28498;54.400;18.566;2023-03-14T05:59:42;5.68;;;3.05;;
42364;SDS011;28498;54.400;18.566;2023-03-14T06:02:09;3.85;;;2.58;;
42364;SDS011;28498;54.400;18.566;2023-03-14T06:04:36;4.45;;;2.60;;
42364;SDS011;28498;54.400;18.566;2023-03-14T06:07:03;7.32;;;3.05;;
42364;SDS011;28498;54.400;18.566;2023-03-14T06:09:30;5.38;;;2.88;;
42364;SDS011;28498;54.400;18.566;2023-03-14T06:11:57;5.50;;;2.97;;
42364;SDS011;28498;54.400;18.566;2023-03-14T06:14:24;5.68;;;2.53;;
42364;SDS011;28498;54.400;18.566;2023-03-14T06:16:51;5.95;;;2.78;;
42364;SDS011;28498;54.400;18.566;2023-03-14T06:19:19;4.20;;;2.30;;
42364;SDS011;28498;54.400;18.566;2023-03-14T06:21:46;5.70;;;2.45;;
42364;SDS011;28498;54.400;18.566;2023-03-14T06:24:13;6.28;;;2.90;;
42364;SDS011;28498;54.400;18.566;2023-03-14T06:26:40;6.43;;;2.40;;
42364;SDS011;28498;54.400;18.566;2023-03-14T06:29:07;5.88;;;2.45;;
42364;SDS011;28498;54.400;18.566;2023-03-14T06:31:34;8.73;;;3.00;;
42364;SDS011;28498;54.400;18.566;2023-03-14T06:34:01;6.00;;;2.33;;
42364;SDS011;28498;54.400;18.566;2023-03-14T06:36:28;5.75;;;2.45;;
42364;SDS011;28498;54.400;18.566;2023-03-14T06:38:55;6.90;;;3.40;;
42364;SDS011;28498;54.400;18.566;2023-03-14T06:41:22;6.55;;;2.10;;
42364;SDS011;28498;54.400;18.566;2023-03-14T06:43:52;6.32;;;2.63;;
42364;SDS011;28498;54.400;18.566;2023-03-14T06:46:21;5.03;;;2.35;;
42364;SDS011;28498;54.400;18.566;2023-03-14T06:48:49;4.75;;;2.40;;
42364;SDS011;28498;54.400;18.566;2023-03-14T06:51:16;5.60;;;2.42;;
42364;SDS011;28498;54.400;18.566;2023-03-14T06:53:43;6.32;;;2.53;;
42364;SDS011;28498;54.400;18.566;2023-03-14T06:56:10;7.03;;;2.40;;
42364;SDS011;28498;54.400;18.566;2023-03-14T06:58:37;9.45;;;3.35;;
42364;SDS011;28498;54.400;18.566;2023-03-14T07:01:04;7.70;;;2.97;;
42364;SDS011;28498;54.400;18.566;2023-03-14T07:03:31;7.35;;;3.85;;
42364;SDS011;28498;54.400;18.566;2023-03-14T07:05:59;8.15;;;3.67;;
42364;SDS011;28498;54.400;18.566;2023-03-14T07:08:26;6.68;;;2.55;;
42364;SDS011;28498;54.400;18.566;2023-03-14T07:10:55;6.10;;;2.35;;
42364;SDS011;28498;54.400;18.566;2023-03-14T07:13:23;6.10;;;2.38;;
42364;SDS011;28498;54.400;18.566;2023-03-14T07:15:50;7.07;;;3.33;;
42364;SDS011;28498;54.400;18.566;2023-03-14T07:18:17;4.72;;;2.30;;
42364;SDS011;28498;54.400;18.566;2023-03-14T07:20:45;8.55;;;2.40;;
42364;SDS011;28498;54.400;18.566;2023-03-14T07:23:12;5.70;;;2.83;;
42364;SDS011;28498;54.400;18.566;2023-03-14T07:25:39;8.13;;;2.50;;
42364;SDS011;28498;54.400;18.566;2023-03-14T07:28:06;3.80;;;2.30;;
42364;SDS011;28498;54.400;18.566;2023-03-14T07:30:33;4.10;;;2.22;;
42364;SDS011;28498;54.400;18.566;2023-03-14T07:33:00;5.45;;;2.92;;
42364;SDS011;28498;54.400;18.566;2023-03-14T07:35:27;7.88;;;2.58;;
42364;SDS011;28498;54.400;18.566;2023-03-14T07:37:54;7.38;;;2.35;;
42364;SDS011;28498;54.400;18.566;2023-03-14T07:40:21;6.00;;;2.22;;
42364;SDS011;28498;54.400;18.566;2023-03-14T07:42:47;5.47;;;2.60;;
42364;SDS011;28498;54.400;18.566;2023-03-14T07:45:15;4.15;;;2.20;;
42364;SDS011;28498;54.400;18.566;2023-03-14T07:47:43;5.07;;;2.65;;
42364;SDS011;28498;54.400;18.566;2023-03-14T07:50:10;5.25;;;2.50;;
42364;SDS011;28498;54.400;18.566;2023-03-14T07:52:37;4.20;;;2.20;;
42364;SDS011;28498;54.400;18.566;2023-03-14T07:55:04;4.03;;;2.00;;
42364;SDS011;28498;54.400;18.566;2023-03-14T07:57:32;6.65;;;2.15;;
42364;SDS011;28498;54.400;18.566;2023-03-14T07:59:59;5.53;;;2.25;;
42364;SDS011;28498;54.400;18.566;2023-03-14T08:02:26;4.28;;;2.53;;
42364;SDS011;28498;54.400;18.566;2023-03-14T08:04:53;5.45;;;2.45;;
42364;SDS011;28498;54.400;18.566;2023-03-14T08:07:20;4.22;;;2.50;;
42364;SDS011;28498;54.400;18.566;2023-03-14T08:09:47;5.70;;;2.38;;
42364;SDS011;28498;54.400;18.566;2023-03-14T08:12:14;5.20;;;2.78;;
42364;SDS011;28498;54.400;18.566;2023-03-14T08:14:42;6.25;;;2.80;;
42364;SDS011;28498;54.400;18.566;2023-03-14T08:17:09;5.72;;;2.20;;
42364;SDS011;28498;54.400;18.566;2023-03-14T08:19:36;5.53;;;2.70;;
42364;SDS011;28498;54.400;18.566;2023-03-14T08:22:04;5.32;;;2.53;;
42364;SDS011;28498;54.400;18.566;2023-03-14T08:24:31;5.78;;;3.05;;
42364;SDS011;28498;54.400;18.566;2023-03-14T08:26:58;4.78;;;2.70;;
42364;SDS011;28498;54.400;18.566;2023-03-14T08:29:25;5.30;;;2.72;;
42364;SDS011;28498;54.400;18.566;2023-03-14T08:31:52;5.45;;;2.58;;
42364;SDS011;28498;54.400;18.566;2023-03-14T08:34:21;4.15;;;2.53;;
42364;SDS011;28498;54.400;18.566;2023-03-14T08:36:48;5.18;;;2.65;;
42364;SDS011;28498;54.400;18.566;2023-03-14T08:39:15;5.50;;;2.60;;
42364;SDS011;28498;54.400;18.566;2023-03-14T08:41:42;5.13;;;2.97;;
42364;SDS011;28498;54.400;18.566;2023-03-14T08:44:10;6.03;;;3.08;;
42364;SDS011;28498;54.400;18.566;2023-03-14T08:46:38;5.90;;;3.13;;
42364;SDS011;28498;54.400;18.566;2023-03-14T08:49:05;4.38;;;2.63;;
42364;SDS011;28498;54.400;18.566;2023-03-14T08:51:32;5.88;;;3.25;;
42364;SDS011;28498;54.400;18.566;2023-03-14T08:53:59;5.68;;;2.80;;
42364;SDS011;28498;54.400;18.566;2023-03-14T08:56:26;6.75;;;2.95;;
42364;SDS011;28498;54.400;18.566;2023-03-14T08:58:53;6.88;;;2.92;;
42364;SDS011;28498;54.400;18.566;2023-03-14T09:01:20;6.47;;;2.80;;
42364;SDS011;28498;54.400;18.566;2023-03-14T09:03:50;6.55;;;2.83;;
42364;SDS011;28498;54.400;18.566;2023-03-14T09:06:17;6.35;;;2.80;;
42364;SDS011;28498;54.400;18.566;2023-03-14T09:08:44;4.55;;;2.75;;
42364;SDS011;28498;54.400;18.566;2023-03-14T09:11:12;7.50;;;2.85;;
42364;SDS011;28498;54.400;18.566;2023-03-14T09:13:39;5.55;;;2.92;;
42364;SDS011;28498;54.400;18.566;2023-03-14T09:16:07;6.70;;;3.08;;
42364;SDS011;28498;54.400;18.566;2023-03-14T09:18:35;6.72;;;3.13;;
42364;SDS011;28498;54.400;18.566;2023-03-14T09:21:02;7.78;;;3.28;;
42364;SDS011;28498;54.400;18.566;2023-03-14T09:23:29;4.60;;;3.30;;
42364;SDS011;28498;54.400;18.566;2023-03-14T09:25:57;5.05;;;3.05;;
42364;SDS011;28498;54.400;18.566;2023-03-14T09:28:25;5.30;;;3.00;;
42364;SDS011;28498;54.400;18.566;2023-03-14T09:30:52;6.40;;;3.42;;
42364;SDS011;28498;54.400;18.566;2023-03-14T09:33:20;4.78;;;2.67;;
42364;SDS011;28498;54.400;18.566;2023-03-14T09:35:48;6.53;;;3.35;;
42364;SDS011;28498;54.400;18.566;2023-03-14T09:38:15;4.57;;;3.05;;
42364;SDS011;28498;54.400;18.566;2023-03-14T09:40:42;5.10;;;2.92;;
42364;SDS011;28498;54.400;18.566;2023-03-14T09:43:10;3.72;;;2.45;;
42364;SDS011;28498;54.400;18.566;2023-03-14T09:45:40;6.50;;;3.00;;
42364;SDS011;28498;54.400;18.566;2023-03-14T09:48:12;5.28;;;2.70;;
42364;SDS011;28498;54.400;18.566;2023-03-14T09:50:49;5.88;;;3.00;;
42364;SDS011;28498;54.400;18.566;2023-03-14T09:53:19;5.78;;;3.30;;
42364;SDS011;28498;54.400;18.566;2023-03-14T09:55:50;7.43;;;3.30;;
42364;SDS011;28498;54.400;18.566;2023-03-14T09:58:22;6.20;;;2.53;;
42364;SDS011;28498;54.400;18.566;2023-03-14T10:00:51;5.82;;;3.50;;
42364;SDS011;28498;54.400;18.566;2023-03-14T10:03:34;7.18;;;2.92;;
42364;SDS011;28498;54.400;18.566;2023-03-14T10:06:02;5.43;;;3.10;;
42364;SDS011;28498;54.400;18.566;2023-03-14T10:08:39;5.35;;;2.90;;
42364;SDS011;28498;54.400;18.566;2023-03-14T10:11:11;5.88;;;2.63;;
42364;SDS011;28498;54.400;18.566;2023-03-14T10:14:28;4.82;;;3.05;;
42364;SDS011;28498;54.400;18.566;2023-03-14T10:16:43;4.20;;;2.63;;
42364;SDS011;28498;54.400;18.566;2023-03-14T10:19:15;5.40;;;2.75;;
42364;SDS011;28498;54.400;18.566;2023-03-14T10:21:44;5.50;;;2.85;;
42364;SDS011;28498;54.400;18.566;2023-03-14T10:24:19;6.93;;;3.33;;
42364;SDS011;28498;54.400;18.566;2023-03-14T10:26:54;5.68;;;2.90;;
42364;SDS011;28498;54.400;18.566;2023-03-14T10:29:24;4.40;;;3.05;;
42364;SDS011;28498;54.400;18.566;2023-03-14T10:31:52;5.22;;;3.03;;
42364;SDS011;28498;54.400;18.566;2023-03-14T10:34:31;5.72;;;3.47;;
42364;SDS011;28498;54.400;18.566;2023-03-14T10:39:52;7.90;;;3.70;;
42364;SDS011;28498;54.400;18.566;2023-03-14T10:42:28;5.53;;;3.42;;
42364;SDS011;28498;54.400;18.566;2023-03-14T10:44:59;5.78;;;3.65;;
42364;SDS011;28498;54.400;18.566;2023-03-14T10:47:28;7.13;;;3.20;;
42364;SDS011;28498;54.400;18.566;2023-03-14T10:49:56;6.00;;;3.17;;
42364;SDS011;28498;54.400;18.566;2023-03-14T10:52:25;5.05;;;3.05;;
42364;SDS011;28498;54.400;18.566;2023-03-14T10:55:14;6.35;;;3.00;;
42364;SDS011;28498;54.400;18.566;2023-03-14T10:57:41;5.90;;;3.17;;
42364;SDS011;28498;54.400;18.566;2023-03-14T11:00:16;5.45;;;2.78;;
42364;SDS011;28498;54.400;18.566;2023-03-14T11:10:42;5.47;;;3.45;;
42364;SDS011;28498;54.400;18.566;2023-03-14T11:27:00;5.97;;;3.50;;
42364;SDS011;28498;54.400;18.566;2023-03-14T11:29:35;4.90;;;3.75;;
42364;SDS011;28498;54.400;18.566;2023-03-14T11:32:10;4.38;;;2.92;;
42364;SDS011;28498;54.400;18.566;2023-03-14T11:34:51;5.28;;;2.63;;
42364;SDS011;28498;54.400;18.566;2023-03-14T11:37:32;4.78;;;2.90;;
42364;SDS011;28498;54.400;18.566;2023-03-14T11:40:13;5.97;;;3.00;;
42364;SDS011;28498;54.400;18.566;2023-03-14T11:42:42;4.38;;;2.60;;
42364;SDS011;28498;54.400;18.566;2023-03-14T11:45:14;6.65;;;3.00;;
42364;SDS011;28498;54.400;18.566;2023-03-14T11:47:45;5.00;;;2.78;;
42364;SDS011;28498;54.400;18.566;2023-03-14T11:50:33;6.38;;;3.00;;
42364;SDS011;28498;54.400;18.566;2023-03-14T11:53:16;4.18;;;2.75;;
42364;SDS011;28498;54.400;18.566;2023-03-14T11:55:49;4.90;;;2.88;;
42364;SDS011;28498;54.400;18.566;2023-03-14T11:58:19;8.90;;;2.70;;
42364;SDS011;28498;54.400;18.566;2023-03-14T12:00:51;4.80;;;2.30;;
42364;SDS011;28498;54.400;18.566;2023-03-14T12:03:26;5.60;;;2.60;;
42364;SDS011;28498;54.400;18.566;2023-03-14T12:06:11;3.72;;;2.17;;
42364;SDS011;28498;54.400;18.566;2023-03-14T12:08:52;4.03;;;2.78;;
42364;SDS011;28498;54.400;18.566;2023-03-14T12:11:38;3.53;;;2.50;;
42364;SDS011;28498;54.400;18.566;2023-03-14T12:14:29;4.72;;;2.30;;
42364;SDS011;28498;54.400;18.566;2023-03-14T12:17:05;9.00;;;3.05;;
42364;SDS011;28498;54.400;18.566;2023-03-14T12:19:44;3.92;;;2.00;;
42364;SDS011;28498;54.400;18.566;2023-03-14T12:22:29;5.70;;;2.30;;
42364;SDS011;28498;54.400;18.566;2023-03-14T12:25:00;7.53;;;2.50;;
42364;SDS011;28498;54.400;18.566;2023-03-14T12:27:45;5.32;;;2.45;;
42364;SDS011;28498;54.400;18.566;2023-03-14T12:38:04;4.32;;;2.08;;
42364;SDS011;28498;54.400;18.566;2023-03-14T12:43:44;7.90;;;2.20;;
42364;SDS011;28498;54.400;18.566;2023-03-14T12:46:15;4.30;;;2.28;;
42364;SDS011;28498;54.400;18.566;2023-03-14T12:48:49;9.35;;;2.55;;
42364;SDS011;28498;54.400;18.566;2023-03-14T12:51:34;5.72;;;2.22;;
42364;SDS011;28498;54.400;18.566;2023-03-14T12:54:10;5.32;;;2.00;;
42364;SDS011;28498;54.400;18.566;2023-03-14T12:56:59;3.50;;;1.95;;
42364;SDS011;28498;54.400;18.566;2023-03-14T13:07:34;4.03;;;2.20;;
42364;SDS011;28498;54.400;18.566;2023-03-14T13:12:50;5.65;;;2.00;;
42364;SDS011;28498;54.400;18.566;2023-03-14T13:18:07;5.10;;;2.10;;
42364;SDS011;28498;54.400;18.566;2023-03-14T13:21:01;7.90;;;2.15;;
42364;SDS011;28498;54.400;18.566;2023-03-14T13:23:31;5.88;;;2.00;;
42364;SDS011;28498;54.400;18.566;2023-03-14T13:26:00;4.07;;;1.58;;
42364;SDS011;28498;54.400;18.566;2023-03-14T13:28:29;4.78;;;1.90;;
42364;SDS011;28498;54.400;18.566;2023-03-14T13:30:58;6.47;;;1.83;;
42364;SDS011;28498;54.400;18.566;2023-03-14T13:33:28;3.38;;;1.80;;
42364;SDS011;28498;54.400;18.566;2023-03-14T13:35:56;3.72;;;1.90;;
42364;SDS011;28498;54.400;18.566;2023-03-14T13:38:32;6.78;;;2.63;;
42364;SDS011;28498;54.400;18.566;2023-03-14T13:41:05;5.57;;;2.30;;
42364;SDS011;28498;54.400;18.566;2023-03-14T13:43:40;9.48;;;2.70;;
42364;SDS011;28498;54.400;18.566;2023-03-14T13:46:13;4.65;;;1.80;;
42364;SDS011;28498;54.400;18.566;2023-03-14T13:48:44;4.57;;;1.80;;
42364;SDS011;28498;54.400;18.566;2023-03-14T13:51:14;4.07;;;2.03;;
42364;SDS011;28498;54.400;18.566;2023-03-14T13:53:44;4.13;;;1.77;;
42364;SDS011;28498;54.400;18.566;2023-03-14T13:56:12;3.60;;;1.60;;
42364;SDS011;28498;54.400;18.566;2023-03-14T13:58:40;7.15;;;2.25;;
42364;SDS011;28498;54.400;18.566;2023-03-14T14:03:48;5.20;;;1.63;;
42364;SDS011;28498;54.400;18.566;2023-03-14T14:06:31;4.85;;;1.92;;
42364;SDS011;28498;54.400;18.566;2023-03-14T14:09:02;7.07;;;1.60;;
42364;SDS011;28498;54.400;18.566;2023-03-14T14:14:42;4.22;;;1.92;;
42364;SDS011;28498;54.400;18.566;2023-03-14T14:17:13;6.32;;;1.90;;
42364;SDS011;28498;54.400;18.566;2023-03-14T14:19:44;5.47;;;1.60;;
42364;SDS011;28498;54.400;18.566;2023-03-14T14:22:12;3.67;;;1.88;;
42364;SDS011;28498;54.400;18.566;2023-03-14T14:24:39;3.50;;;1.98;;
42364;SDS011;28498;54.400;18.566;2023-03-14T14:27:15;5.20;;;1.70;;
42364;SDS011;28498;54.400;18.566;2023-03-14T14:29:44;6.00;;;1.70;;
42364;SDS011;28498;54.400;18.566;2023-03-14T14:32:24;4.72;;;1.63;;
42364;SDS011;28498;54.400;18.566;2023-03-14T14:37:28;5.60;;;1.90;;
42364;SDS011;28498;54.400;18.566;2023-03-14T14:40:10;7.03;;;2.15;;
42364;SDS011;28498;54.400;18.566;2023-03-14T14:45:13;3.42;;;1.50;;
42364;SDS011;28498;54.400;18.566;2023-03-14T14:47:54;4.32;;;1.55;;
42364;SDS011;28498;54.400;18.566;2023-03-14T14:50:29;5.75;;;1.83;;
42364;SDS011;28498;54.400;18.566;2023-03-14T14:52:57;4.93;;;1.70;;
42364;SDS011;28498;54.400;18.566;2023-03-14T14:55:33;4.03;;;1.77;;
42364;SDS011;28498;54.400;18.566;2023-03-14T14:58:18;4.07;;;2.25;;
42364;SDS011;28498;54.400;18.566;2023-03-14T15:01:03;4.50;;;1.90;;
42364;SDS011;28498;54.400;18.566;2023-03-14T15:03:50;4.47;;;1.70;;
42364;SDS011;28498;54.400;18.566;2023-03-14T15:06:18;6.07;;;2.00;;
42364;SDS011;28498;54.400;18.566;2023-03-14T15:08:46;3.97;;;1.80;;
42364;SDS011;28498;54.400;18.566;2023-03-14T15:11:18;4.32;;;1.90;;
42364;SDS011;28498;54.400;18.566;2023-03-14T15:13:49;5.22;;;2.03;;
42364;SDS011;28498;54.400;18.566;2023-03-14T15:16:17;3.58;;;1.63;;
42364;SDS011;28498;54.400;18.566;2023-03-14T15:18:52;4.45;;;2.00;;
42364;SDS011;28498;54.400;18.566;2023-03-14T15:21:24;7.38;;;2.67;;
42364;SDS011;28498;54.400;18.566;2023-03-14T15:23:53;8.77;;;1.95;;
42364;SDS011;28498;54.400;18.566;2023-03-14T15:26:21;4.38;;;1.75;;
42364;SDS011;28498;54.400;18.566;2023-03-14T15:28:50;5.22;;;2.17;;
42364;SDS011;28498;54.400;18.566;2023-03-14T15:31:18;4.78;;;1.80;;
42364;SDS011;28498;54.400;18.566;2023-03-14T15:33:47;5.47;;;2.40;;
42364;SDS011;28498;54.400;18.566;2023-03-14T15:36:24;4.50;;;2.00;;
42364;SDS011;28498;54.400;18.566;2023-03-14T15:38:54;4.80;;;1.70;;
42364;SDS011;28498;54.400;18.566;2023-03-14T15:41:22;7.28;;;1.70;;
42364;SDS011;28498;54.400;18.566;2023-03-14T15:43:49;5.70;;;1.80;;
42364;SDS011;28498;54.400;18.566;2023-03-14T15:46:17;5.90;;;1.60;;
42364;SDS011;28498;54.400;18.566;2023-03-14T15:48:45;7.00;;;1.70;;
42364;SDS011;28498;54.400;18.566;2023-03-14T15:51:12;4.00;;;2.15;;
42364;SDS011;28498;54.400;18.566;2023-03-14T15:53:40;4.50;;;2.05;;
42364;SDS011;28498;54.400;18.566;2023-03-14T15:56:13;4.10;;;2.17;;
42364;SDS011;28498;54.400;18.566;2023-03-14T15:58:42;3.95;;;1.92;;